Time;durP1;ratioP1;P1;durP2;ratioP2;P2;SDS_P1;SDS_P2;PMS_P1;PMS_P2;Temp;Humidity;BMP_temperature;BMP_pressure;BME280_temperature;BME280_humidity;BME280_pressure;Samples;Min_cycle;Max_cycle;Signal;HPM_P1;HPM_P2
2023/12/18 00:00:23;;;;;;;10.65;9.57;;;18.70;57.60;;;;;;4963247;28;20198;-71
2023/12/18 00:02:48;;;;;;;9.40;8.50;;;18.70;57.60;;;;;;4960176;28;20201;-72
2023/12/18 00:05:14;;;;;;;10.38;8.90;;;18.70;57.60;;;;;;4973996;28;20182;-70
2023/12/18 00:07:40;;;;;;;11.25;10.02;;;18.60;57.60;;;;;;4960721;28;20266;-70
2023/12/18 00:10:06;;;;;;;10.15;9.07;;;18.70;57.60;;;;;;4983735;28;20197;-70
2023/12/18 00:12:32;;;;;;;10.02;8.93;;;18.60;57.50;;;;;;4949152;28;20369;-70
2023/12/18 00:14:58;;;;;;;10.18;9.07;;;18.60;57.50;;;;;;4989145;28;20277;-71
2023/12/18 00:17:23;;;;;;;9.32;8.50;;;18.60;57.60;;;;;;4975842;28;20209;-70
2023/12/18 00:19:49;;;;;;;9.63;8.70;;;18.60;57.50;;;;;;4959683;28;20246;-70
2023/12/18 00:22:15;;;;;;;10.07;9.05;;;18.70;57.60;;;;;;4961914;28;20220;-70
2023/12/18 00:24:40;;;;;;;9.90;8.90;;;18.70;57.60;;;;;;4986116;28;20198;-70
2023/12/18 00:27:06;;;;;;;9.85;8.88;;;18.60;57.50;;;;;;4967848;28;20192;-70
2023/12/18 00:29:32;;;;;;;10.88;9.25;;;18.60;57.50;;;;;;4980701;28;20198;-71
2023/12/18 00:31:57;;;;;;;9.10;8.20;;;18.60;57.50;;;;;;4964191;28;20229;-70
2023/12/18 00:34:23;;;;;;;9.60;8.70;;;18.60;57.50;;;;;;4983877;28;20194;-70
2023/12/18 00:36:49;;;;;;;9.38;8.38;;;18.70;57.50;;;;;;4989042;28;20291;-70
2023/12/18 00:39:17;;;;;;;10.45;8.38;;;18.60;57.40;;;;;;4972776;28;20209;-70
2023/12/18 00:41:43;;;;;;;9.07;8.18;;;18.60;57.40;;;;;;4969518;28;20228;-70
2023/12/18 00:44:09;;;;;;;9.88;8.38;;;18.60;57.40;;;;;;4988357;28;20593;-70
2023/12/18 00:46:35;;;;;;;9.20;8.30;;;18.60;57.40;;;;;;4981265;28;20201;-71
2023/12/18 00:49:00;;;;;;;8.93;8.02;;;18.60;57.40;;;;;;4984053;28;20194;-71
2023/12/18 00:51:26;;;;;;;8.65;7.75;;;18.60;57.40;;;;;;4953284;28;20723;-70
2023/12/18 00:53:52;;;;;;;9.30;8.40;;;18.60;57.40;;;;;;4973391;28;20188;-70
2023/12/18 00:56:17;;;;;;;9.15;8.25;;;18.70;57.50;;;;;;4955295;28;20222;-71
2023/12/18 00:58:43;;;;;;;9.80;8.85;;;18.60;57.40;;;;;;4989104;28;20186;-70
2023/12/18 01:01:10;;;;;;;9.82;8.60;;;18.60;57.40;;;;;;4971380;28;20208;-70
2023/12/18 01:03:37;;;;;;;9.45;8.48;;;18.60;57.40;;;;;;4958336;28;20265;-70
2023/12/18 01:06:05;;;;;;;9.10;8.20;;;18.60;57.40;;;;;;4968518;28;20198;-71
2023/12/18 01:08:30;;;;;;;8.43;7.57;;;18.60;57.40;;;;;;4975703;28;20189;-70
2023/12/18 01:10:56;;;;;;;8.68;7.88;;;18.60;57.40;;;;;;4956231;28;20232;-70
2023/12/18 01:13:23;;;;;;;8.60;7.80;;;18.60;57.40;;;;;;4957789;28;20246;-70
2023/12/18 01:15:48;;;;;;;9.57;8.05;;;18.60;57.40;;;;;;4987249;28;20630;-70
2023/12/18 01:18:14;;;;;;;9.48;8.48;;;18.60;57.40;;;;;;4944505;28;20211;-70
2023/12/18 01:20:40;;;;;;;8.63;7.72;;;18.60;57.40;;;;;;4952077;28;20621;-71
2023/12/18 01:23:06;;;;;;;9.63;8.63;;;18.60;57.50;;;;;;4972400;28;20621;-70
2023/12/18 01:25:32;;;;;;;8.82;7.93;;;18.60;57.40;;;;;;4950215;28;20193;-70
2023/12/18 01:27:59;;;;;;;8.55;7.75;;;18.60;57.40;;;;;;4944777;28;20696;-70
2023/12/18 01:30:25;;;;;;;8.93;8.02;;;18.60;57.40;;;;;;4965182;28;20214;-70
2023/12/18 01:32:51;;;;;;;9.00;8.10;;;18.60;57.40;;;;;;4989054;28;20197;-70
2023/12/18 01:35:17;;;;;;;9.82;8.82;;;18.60;57.30;;;;;;4983641;28;20191;-70
2023/12/18 01:37:43;;;;;;;8.07;7.28;;;18.60;57.30;;;;;;4960398;28;20217;-69
2023/12/18 01:40:09;;;;;;;8.27;7.47;;;18.60;57.30;;;;;;4986265;28;20186;-71
2023/12/18 01:42:35;;;;;;;9.93;8.20;;;18.60;57.30;;;;;;4974884;28;20194;-69
2023/12/18 01:45:00;;;;;;;8.63;7.85;;;18.60;57.30;;;;;;4988022;28;20197;-70
2023/12/18 01:47:26;;;;;;;9.18;8.27;;;18.60;57.30;;;;;;4975586;28;20194;-68
2023/12/18 01:49:52;;;;;;;9.05;8.15;;;18.60;57.30;;;;;;4972026;28;20204;-69
2023/12/18 01:52:18;;;;;;;8.85;8.05;;;18.60;57.30;;;;;;4983919;28;20220;-70
2023/12/18 01:54:46;;;;;;;8.68;7.88;;;18.60;57.30;;;;;;4967117;28;20232;-72
2023/12/18 01:57:16;;;;;;;9.02;8.13;;;18.60;57.20;;;;;;4966344;28;20642;-70
2023/12/18 01:59:42;;;;;;;10.05;8.55;;;18.60;57.20;;;;;;4973952;28;20236;-70
2023/12/18 02:02:08;;;;;;;8.93;8.02;;;18.60;57.20;;;;;;4976948;28;20707;-70
2023/12/18 02:04:34;;;;;;;8.48;7.68;;;18.60;57.20;;;;;;4972813;28;20205;-70
2023/12/18 02:07:03;;;;;;;8.93;7.72;;;18.60;57.20;;;;;;4973676;28;20247;-71
2023/12/18 02:09:29;;;;;;;8.93;8.05;;;18.60;57.30;;;;;;4968557;28;20241;-70
2023/12/18 02:11:55;;;;;;;9.40;8.40;;;18.60;57.30;;;;;;4994203;28;20214;-70
2023/12/18 02:14:21;;;;;;;8.65;7.85;;;18.60;57.30;;;;;;4962926;28;20186;-70
2023/12/18 02:16:47;;;;;;;8.30;7.50;;;18.60;57.30;;;;;;4955745;28;20219;-71
2023/12/18 02:19:28;;;;;;;9.48;8.25;;;18.60;57.90;;;;;;4972251;28;20197;-70
2023/12/18 02:21:55;;;;;;;8.75;7.75;;;18.60;57.20;;;;;;4971969;28;20243;-70
2023/12/18 02:24:21;;;;;;;8.93;8.05;;;18.60;57.20;;;;;;4972500;28;20200;-71
2023/12/18 02:26:48;;;;;;;8.85;7.95;;;18.60;57.20;;;;;;4978221;28;20217;-70
2023/12/18 02:29:14;;;;;;;8.50;7.65;;;18.60;57.20;;;;;;4971299;28;20261;-70
2023/12/18 02:31:42;;;;;;;8.77;7.97;;;18.60;57.10;;;;;;4955801;28;20373;-70
2023/12/18 02:34:08;;;;;;;8.98;8.00;;;18.60;57.20;;;;;;4979279;28;20186;-71
2023/12/18 02:36:34;;;;;;;9.32;8.43;;;18.50;57.10;;;;;;4972741;28;20230;-70
2023/12/18 02:38:59;;;;;;;8.27;7.45;;;18.50;57.00;;;;;;4971578;28;20189;-71
2023/12/18 02:41:25;;;;;;;8.27;7.47;;;18.60;57.10;;;;;;4968371;28;20635;-70
2023/12/18 02:43:51;;;;;;;8.93;8.02;;;18.60;57.10;;;;;;4985560;28;20675;-71
2023/12/18 02:46:17;;;;;;;8.30;7.55;;;18.60;57.10;;;;;;4972418;28;20190;-71
2023/12/18 02:48:42;;;;;;;7.70;7.00;;;18.50;57.10;;;;;;4971276;28;20190;-69
2023/12/18 02:51:08;;;;;;;8.45;7.65;;;18.60;57.10;;;;;;4972242;28;20592;-70
2023/12/18 02:53:35;;;;;;;8.52;7.72;;;18.60;57.10;;;;;;4980349;28;20200;-71
2023/12/18 02:56:01;;;;;;;8.07;7.28;;;18.60;57.20;;;;;;4991137;28;20254;-71
2023/12/18 02:58:27;;;;;;;8.25;7.00;;;18.60;57.10;;;;;;4976793;28;20709;-70
2023/12/18 03:00:52;;;;;;;8.07;7.28;;;18.50;57.10;;;;;;4959115;28;20263;-71
2023/12/18 03:03:19;;;;;;;8.55;7.65;;;18.50;57.00;;;;;;4989365;28;20216;-70
2023/12/18 03:05:45;;;;;;;8.13;7.32;;;18.60;57.10;;;;;;4974776;28;20273;-71
2023/12/18 03:08:11;;;;;;;8.10;7.30;;;18.50;57.00;;;;;;4973709;28;20333;-70
2023/12/18 03:10:36;;;;;;;7.28;6.63;;;18.50;57.10;;;;;;4987661;28;20219;-70
2023/12/18 03:13:02;;;;;;;8.10;7.30;;;18.60;57.10;;;;;;4973448;28;20198;-71
2023/12/18 03:15:28;;;;;;;7.53;6.82;;;18.60;57.10;;;;;;4974726;28;20197;-70
2023/12/18 03:17:54;;;;;;;7.65;6.95;;;18.60;57.00;;;;;;4989876;28;20259;-70
2023/12/18 03:20:20;;;;;;;8.80;7.90;;;18.50;57.00;;;;;;4971121;28;20212;-70
2023/12/18 03:22:45;;;;;;;7.93;7.15;;;18.50;57.00;;;;;;4971559;28;20230;-70
2023/12/18 03:25:11;;;;;;;7.72;6.93;;;18.50;57.00;;;;;;4990496;28;20243;-71
2023/12/18 03:27:37;;;;;;;7.30;6.60;;;18.50;56.90;;;;;;4975695;28;20201;-69
2023/12/18 03:30:03;;;;;;;8.40;7.43;;;18.60;57.00;;;;;;4964766;28;20190;-70
2023/12/18 03:32:29;;;;;;;7.53;6.75;;;18.50;56.90;;;;;;4968716;28;20197;-71
2023/12/18 03:34:55;;;;;;;7.32;6.72;;;18.60;57.10;;;;;;4974094;28;20205;-71
2023/12/18 03:37:20;;;;;;;7.65;6.78;;;18.60;57.00;;;;;;4974096;28;20218;-71
2023/12/18 03:39:46;;;;;;;7.63;6.88;;;18.60;57.00;;;;;;4968545;28;20239;-71
2023/12/18 03:42:12;;;;;;;7.35;6.30;;;18.50;56.90;;;;;;4966392;28;20232;-70
2023/12/18 03:44:37;;;;;;;7.53;6.82;;;18.50;56.90;;;;;;4971235;28;20201;-70
2023/12/18 03:47:03;;;;;;;8.10;7.30;;;18.50;56.90;;;;;;4981326;28;20190;-68
2023/12/18 03:49:29;;;;;;;7.55;6.75;;;18.50;56.90;;;;;;4974108;28;20189;-70
2023/12/18 03:51:55;;;;;;;7.57;6.88;;;18.50;57.00;;;;;;4972794;28;20205;-71
2023/12/18 03:54:20;;;;;;;6.80;6.10;;;18.50;56.90;;;;;;4951239;28;20193;-71
2023/12/18 03:56:46;;;;;;;6.80;6.20;;;18.50;56.90;;;;;;4958087;28;20273;-71
2023/12/18 03:59:12;;;;;;;6.85;6.25;;;18.50;56.90;;;;;;4946680;28;20190;-71
2023/12/18 04:01:38;;;;;;;7.03;6.32;;;18.50;56.80;;;;;;4976961;28;20216;-71
2023/12/18 04:04:03;;;;;;;6.90;6.28;;;18.50;56.90;;;;;;4965779;28;20182;-71
2023/12/18 04:06:29;;;;;;;6.65;6.03;;;18.50;56.90;;;;;;4982192;28;20213;-70
2023/12/18 04:08:55;;;;;;;6.32;5.72;;;18.50;56.90;;;;;;4979530;28;20203;-70
2023/12/18 04:11:23;;;;;;;6.97;5.97;;;18.50;56.80;;;;;;4982085;28;20226;-70
2023/12/18 04:13:50;;;;;;;6.55;5.95;;;18.50;56.80;;;;;;4973386;28;20236;-71
2023/12/18 04:16:16;;;;;;;6.55;5.95;;;18.50;56.80;;;;;;4989576;28;20182;-70
2023/12/18 04:18:42;;;;;;;6.97;6.28;;;18.50;56.80;;;;;;4989891;28;20190;-70
2023/12/18 04:21:08;;;;;;;6.30;5.70;;;18.50;56.80;;;;;;4975077;28;20213;-70
2023/12/18 04:23:34;;;;;;;6.10;5.50;;;18.50;56.80;;;;;;4975905;28;20198;-70
2023/12/18 04:26:00;;;;;;;6.22;5.72;;;18.50;56.80;;;;;;4954587;28;20669;-71
2023/12/18 04:28:25;;;;;;;6.15;5.55;;;18.50;56.80;;;;;;4973352;28;20197;-70
2023/12/18 04:30:51;;;;;;;5.90;5.38;;;18.50;56.90;;;;;;4969953;28;20230;-70
2023/12/18 04:33:17;;;;;;;6.35;5.72;;;18.50;56.80;;;;;;4989463;28;20208;-70
2023/12/18 04:35:43;;;;;;;6.05;5.50;;;18.50;56.80;;;;;;4982101;28;20700;-71
2023/12/18 04:38:09;;;;;;;6.25;5.65;;;18.50;56.70;;;;;;4970584;28;20223;-70
2023/12/18 04:40:34;;;;;;;6.55;5.75;;;18.50;56.70;;;;;;4955531;28;20210;-70
2023/12/18 04:43:00;;;;;;;6.13;5.53;;;18.50;56.70;;;;;;4970588;28;20197;-70
2023/12/18 04:45:26;;;;;;;6.50;5.90;;;18.50;56.70;;;;;;4950942;28;20200;-70
2023/12/18 04:47:51;;;;;;;6.53;5.93;;;18.50;56.60;;;;;;4954303;28;20225;-70
2023/12/18 04:50:17;;;;;;;5.80;5.30;;;18.50;56.80;;;;;;4975177;28;20189;-71
2023/12/18 04:52:43;;;;;;;5.50;5.00;;;18.50;56.70;;;;;;4983343;28;20197;-70
2023/12/18 04:55:09;;;;;;;5.90;5.30;;;18.50;56.70;;;;;;4984662;28;20185;-70
2023/12/18 04:57:36;;;;;;;6.25;5.65;;;18.50;56.80;;;;;;4983770;28;20209;-70
2023/12/18 05:00:02;;;;;;;5.53;5.03;;;18.50;56.70;;;;;;4979090;28;20177;-70
2023/12/18 05:02:28;;;;;;;5.40;4.90;;;18.50;56.70;;;;;;4962282;28;20222;-70
2023/12/18 05:04:54;;;;;;;5.78;5.18;;;18.50;56.70;;;;;;4986672;28;20193;-70
2023/12/18 05:07:19;;;;;;;5.70;5.00;;;18.50;56.70;;;;;;4977460;28;20281;-70
2023/12/18 05:09:45;;;;;;;5.15;4.65;;;18.50;56.70;;;;;;4983784;28;20199;-70
2023/12/18 05:12:11;;;;;;;5.72;5.13;;;18.50;56.70;;;;;;4964726;28;20221;-70
2023/12/18 05:14:36;;;;;;;5.32;4.88;;;18.50;56.70;;;;;;4982010;28;20201;-71
2023/12/18 05:17:02;;;;;;;5.38;4.88;;;18.50;56.60;;;;;;4988713;28;20217;-70
2023/12/18 05:19:28;;;;;;;5.55;5.00;;;18.50;56.70;;;;;;4988400;28;20193;-70
2023/12/18 05:21:54;;;;;;;5.22;4.72;;;18.50;56.60;;;;;;4980012;28;20237;-71
2023/12/18 05:24:19;;;;;;;5.68;5.18;;;18.50;56.60;;;;;;4962743;28;20190;-70
2023/12/18 05:26:45;;;;;;;5.35;4.93;;;18.50;56.60;;;;;;4969285;28;20229;-70
2023/12/18 05:29:11;;;;;;;5.50;5.00;;;18.50;56.60;;;;;;4960177;28;20206;-70
2023/12/18 05:31:37;;;;;;;4.88;4.47;;;18.50;56.60;;;;;;4978824;28;20222;-71
2023/12/18 05:34:02;;;;;;;5.05;4.50;;;18.50;56.60;;;;;;4965523;28;20205;-70
2023/12/18 05:36:29;;;;;;;4.88;4.47;;;18.50;56.60;;;;;;4969098;28;20274;-70
2023/12/18 05:38:54;;;;;;;5.22;4.72;;;18.50;56.60;;;;;;4992710;28;20281;-70
2023/12/18 05:41:20;;;;;;;5.28;4.80;;;18.50;56.50;;;;;;4968381;28;20492;-70
2023/12/18 05:43:46;;;;;;;5.20;4.70;;;18.50;56.50;;;;;;4985003;28;20193;-71
2023/12/18 05:46:14;;;;;;;4.82;4.38;;;18.50;56.50;;;;;;4956127;28;20194;-70
2023/12/18 05:48:39;;;;;;;5.28;4.78;;;18.40;56.50;;;;;;4989008;28;20222;-72
2023/12/18 05:51:05;;;;;;;5.22;4.72;;;18.40;56.50;;;;;;4962048;28;20217;-70
2023/12/18 05:53:31;;;;;;;4.90;4.50;;;18.50;56.60;;;;;;4971643;28;20220;-70
2023/12/18 05:55:57;;;;;;;5.28;4.78;;;18.50;56.60;;;;;;4983749;28;20677;-71
2023/12/18 05:58:22;;;;;;;5.13;4.63;;;18.50;56.40;;;;;;4962937;28;20212;-71
2023/12/18 06:00:48;;;;;;;5.40;4.90;;;18.40;56.40;;;;;;4972201;28;20208;-71
2023/12/18 06:03:14;;;;;;;5.32;4.93;;;18.40;56.50;;;;;;4961340;28;20190;-69
2023/12/18 06:05:39;;;;;;;4.75;4.35;;;18.40;56.50;;;;;;4969078;28;20200;-68
2023/12/18 06:08:05;;;;;;;5.82;5.28;;;18.40;56.50;;;;;;4968028;28;20194;-69
2023/12/18 06:10:31;;;;;;;5.13;4.63;;;18.40;56.40;;;;;;4967470;28;20210;-70
2023/12/18 06:12:57;;;;;;;5.57;4.68;;;18.40;56.50;;;;;;4953578;28;20223;-70
2023/12/18 06:15:23;;;;;;;5.13;4.63;;;18.40;56.40;;;;;;4971349;28;20192;-70
2023/12/18 06:17:48;;;;;;;5.03;4.55;;;18.40;57.00;;;;;;4971547;28;20221;-70
2023/12/18 06:20:14;;;;;;;5.03;4.53;;;18.50;56.40;;;;;;4979088;28;20188;-70
2023/12/18 06:22:40;;;;;;;5.13;4.63;;;18.40;56.40;;;;;;4973210;28;20294;-70
2023/12/18 06:25:06;;;;;;;5.63;5.13;;;18.40;56.30;;;;;;4956979;28;20256;-70
2023/12/18 06:27:32;;;;;;;5.03;4.53;;;18.40;56.40;;;;;;4989531;28;20206;-71
2023/12/18 06:29:58;;;;;;;5.32;4.82;;;18.40;56.40;;;;;;4978467;28;20194;-71
2023/12/18 06:32:23;;;;;;;5.72;5.22;;;18.50;56.40;;;;;;4982383;28;20227;-71
2023/12/18 06:34:50;;;;;;;5.40;4.90;;;18.40;56.20;;;;;;4979839;28;20248;-71
2023/12/18 06:37:16;;;;;;;5.47;4.97;;;18.40;56.20;;;;;;4980436;28;20252;-71
2023/12/18 06:39:42;;;;;;;5.53;5.03;;;18.40;56.20;;;;;;4979221;28;20196;-71
2023/12/18 06:42:08;;;;;;;4.95;4.55;;;18.40;56.40;;;;;;4984961;28;20213;-71
2023/12/18 06:44:34;;;;;;;5.15;4.65;;;18.50;56.30;;;;;;4970394;28;20533;-71
2023/12/18 06:47:00;;;;;;;4.90;4.50;;;18.40;56.30;;;;;;4982391;28;20225;-71
2023/12/18 06:49:25;;;;;;;5.70;5.20;;;18.50;56.30;;;;;;4970799;28;20289;-70
2023/12/18 06:51:51;;;;;;;6.10;5.35;;;18.40;56.20;;;;;;4955164;28;20217;-71
2023/12/18 06:54:17;;;;;;;5.18;4.68;;;18.40;56.20;;;;;;4980407;28;20221;-71
2023/12/18 06:56:43;;;;;;;5.70;5.20;;;18.40;56.20;;;;;;4985063;28;20217;-71
2023/12/18 06:59:09;;;;;;;5.55;4.88;;;18.40;56.40;;;;;;4970975;28;20236;-72
2023/12/18 07:01:35;;;;;;;5.93;5.38;;;18.40;56.30;;;;;;4983563;28;20211;-71
2023/12/18 07:04:02;;;;;;;6.45;5.72;;;18.40;56.20;;;;;;4986509;28;20282;-71
2023/12/18 07:06:28;;;;;;;5.90;5.30;;;18.40;56.20;;;;;;4996516;28;20196;-71
2023/12/18 07:08:54;;;;;;;6.45;5.80;;;18.40;56.20;;;;;;4974006;28;20581;-71
2023/12/18 07:11:20;;;;;;;6.22;5.55;;;18.40;56.20;;;;;;4958722;28;20210;-71
2023/12/18 07:13:46;;;;;;;6.10;5.18;;;18.40;56.20;;;;;;4969708;28;20197;-71
2023/12/18 07:16:22;;;;;;;6.57;5.75;;;18.40;56.20;;;;;;4983162;28;20190;-71
2023/12/18 07:18:48;;;;;;;5.68;5.18;;;18.40;56.20;;;;;;4985571;28;20189;-71
2023/12/18 07:21:13;;;;;;;6.32;5.70;;;18.40;56.30;;;;;;4971089;28;20219;-71
2023/12/18 07:23:42;;;;;;;6.93;6.07;;;18.40;56.20;;;;;;5000321;28;20192;-71
2023/12/18 07:26:12;;;;;;;6.45;5.85;;;18.40;56.20;;;;;;4966771;28;20187;-70
2023/12/18 07:28:39;;;;;;;6.70;6.10;;;18.40;56.20;;;;;;4985975;28;20554;-71
2023/12/18 07:31:06;;;;;;;6.13;5.53;;;18.40;56.20;;;;;;4974420;28;20285;-71
2023/12/18 07:33:31;;;;;;;5.82;5.32;;;18.40;56.20;;;;;;4967348;28;20772;-73
2023/12/18 07:35:57;;;;;;;6.28;5.68;;;18.40;56.20;;;;;;4998856;28;20196;-71
2023/12/18 07:38:23;;;;;;;7.05;6.35;;;18.40;56.20;;;;;;4962919;28;20224;-71
2023/12/18 07:40:48;;;;;;;6.20;5.70;;;18.40;56.20;;;;;;4974845;28;20212;-71
2023/12/18 07:43:14;;;;;;;6.78;6.20;;;18.40;56.20;;;;;;4942243;28;20281;-71
2023/12/18 07:45:40;;;;;;;6.90;6.25;;;18.40;56.20;;;;;;4969747;28;20212;-72
2023/12/18 07:48:06;;;;;;;7.00;6.40;;;18.40;56.30;;;;;;4989415;28;20225;-71
2023/12/18 07:50:32;;;;;;;6.40;5.80;;;18.40;56.20;;;;;;4970174;28;20211;-71
2023/12/18 07:52:57;;;;;;;6.80;6.10;;;18.40;56.20;;;;;;4996952;28;20198;-71
2023/12/18 07:55:23;;;;;;;6.60;5.93;;;18.40;56.30;;;;;;4975481;28;20194;-71
2023/12/18 07:57:49;;;;;;;7.40;6.70;;;18.40;56.20;;;;;;4951504;28;20213;-71
2023/12/18 08:00:15;;;;;;;6.90;6.30;;;18.40;56.20;;;;;;4964876;28;20186;-70
2023/12/18 08:02:42;;;;;;;6.57;5.97;;;18.40;56.20;;;;;;4970389;28;20197;-70
2023/12/18 08:05:07;;;;;;;6.90;6.20;;;18.40;56.30;;;;;;4972770;28;20188;-69
2023/12/18 08:07:33;;;;;;;8.65;6.28;;;18.40;56.20;;;;;;4966581;28;20194;-71
2023/12/18 08:09:59;;;;;;;6.82;6.22;;;18.40;56.20;;;;;;4972533;28;20195;-71
2023/12/18 08:12:25;;;;;;;7.13;6.43;;;18.40;56.20;;;;;;4985862;28;20222;-71
2023/12/18 08:14:51;;;;;;;6.88;6.28;;;18.40;56.20;;;;;;5000712;28;20192;-70
2023/12/18 08:17:17;;;;;;;7.20;6.50;;;18.40;56.10;;;;;;4981749;28;20253;-71
2023/12/18 08:19:47;;;;;;;6.85;6.15;;;18.40;56.80;;;;;;4983996;28;20181;-71
2023/12/18 08:22:13;;;;;;;6.80;6.10;;;18.40;56.10;;;;;;4974282;28;20209;-71
2023/12/18 08:24:39;;;;;;;6.47;5.88;;;18.40;56.10;;;;;;4973711;28;20189;-70
2023/12/18 08:27:05;;;;;;;7.32;6.63;;;18.40;56.10;;;;;;4981893;28;20308;-71
2023/12/18 08:29:30;;;;;;;7.43;6.65;;;18.40;56.20;;;;;;4972288;28;20214;-71
2023/12/18 08:31:56;;;;;;;6.70;6.10;;;18.40;56.00;;;;;;4980747;28;20224;-71
2023/12/18 08:34:24;;;;;;;7.85;6.55;;;18.40;56.10;;;;;;4980744;28;20217;-71
2023/12/18 08:36:50;;;;;;;6.75;6.15;;;18.40;56.10;;;;;;4974189;28;20210;-71
2023/12/18 08:39:16;;;;;;;7.47;6.78;;;18.40;56.10;;;;;;4948735;28;20212;-70
2023/12/18 08:41:45;;;;;;;7.22;6.53;;;18.40;56.10;;;;;;4973107;28;20220;-71
2023/12/18 08:44:11;;;;;;;7.32;6.63;;;18.40;56.10;;;;;;4989287;28;20208;-71
2023/12/18 08:46:38;;;;;;;7.15;6.47;;;18.40;56.10;;;;;;4957937;28;20258;-71
2023/12/18 08:49:04;;;;;;;7.72;7.00;;;18.40;56.10;;;;;;4973172;28;20197;-70
2023/12/18 08:51:30;;;;;;;7.25;6.55;;;18.40;56.20;;;;;;4968893;28;20218;-71
2023/12/18 08:53:56;;;;;;;7.07;6.35;;;18.40;56.10;;;;;;4980949;28;20186;-71
2023/12/18 08:56:24;;;;;;;8.63;7.75;;;18.40;56.10;;;;;;4976573;28;20189;-71
2023/12/18 08:58:52;;;;;;;7.82;7.13;;;18.40;56.00;;;;;;4981125;28;20193;-71
2023/12/18 09:01:18;;;;;;;7.72;7.03;;;18.40;56.00;;;;;;4960320;28;20202;-70
2023/12/18 09:03:52;;;;;;;7.20;6.50;;;18.40;56.00;;;;;;4960078;28;20185;-71
2023/12/18 09:06:18;;;;;;;8.13;7.32;;;18.40;56.00;;;;;;4981742;28;20285;-70
2023/12/18 09:08:43;;;;;;;8.20;7.40;;;18.40;56.10;;;;;;4975433;28;20232;-71
2023/12/18 09:11:09;;;;;;;8.02;7.22;;;18.40;56.00;;;;;;5000333;28;20209;-71
2023/12/18 09:13:41;;;;;;;7.60;6.80;;;18.40;56.00;;;;;;5133827;27;20560;-70
2023/12/18 09:16:07;;;;;;;7.43;6.70;;;18.50;56.10;;;;;;5091720;28;20192;-70
2023/12/18 09:18:34;;;;;;;7.00;6.43;;;18.40;56.10;;;;;;5098168;28;20176;-70
2023/12/18 09:21:00;;;;;;;7.28;6.60;;;18.40;56.00;;;;;;5119057;28;20212;-70
2023/12/18 09:23:26;;;;;;;7.30;6.60;;;18.40;56.00;;;;;;5110244;28;20203;-70
2023/12/18 09:25:52;;;;;;;6.95;6.25;;;18.50;56.10;;;;;;5093452;28;20172;-71
2023/12/18 09:28:18;;;;;;;7.38;6.68;;;18.40;56.00;;;;;;5104474;28;20230;-70
2023/12/18 09:30:44;;;;;;;7.75;6.95;;;18.40;56.10;;;;;;5094456;28;20200;-70
2023/12/18 09:33:10;;;;;;;6.50;5.90;;;18.50;56.10;;;;;;5115149;28;20287;-70
2023/12/18 09:35:36;;;;;;;6.78;6.18;;;18.40;56.00;;;;;;5110426;28;20274;-70
2023/12/18 09:38:02;;;;;;;7.57;6.88;;;18.40;56.10;;;;;;5111247;28;20658;-70
2023/12/18 09:40:28;;;;;;;7.25;6.55;;;18.50;56.20;;;;;;5090600;28;20217;-70
2023/12/18 09:42:54;;;;;;;7.40;6.72;;;18.50;56.20;;;;;;5094607;28;20222;-70
2023/12/18 09:45:23;;;;;;;6.78;6.18;;;18.50;56.20;;;;;;5108780;28;20268;-72
2023/12/18 09:47:49;;;;;;;7.38;6.70;;;18.50;56.20;;;;;;5105753;28;20181;-70
2023/12/18 09:50:16;;;;;;;7.25;6.60;;;18.50;56.20;;;;;;5110831;28;20176;-70
2023/12/18 09:53:07;;;;;;;7.18;6.57;;;18.50;56.20;;;;;;5111664;28;20202;-69
2023/12/18 09:55:34;;;;;;;7.55;6.85;;;18.50;56.30;;;;;;5090621;28;20180;-70
2023/12/18 09:58:01;;;;;;;6.85;6.15;;;18.50;56.20;;;;;;5115724;28;20221;-70
2023/12/18 10:00:27;;;;;;;7.05;6.45;;;18.50;56.20;;;;;;5103815;28;20291;-70
2023/12/18 10:02:58;;;;;;;7.03;6.43;;;18.50;56.20;;;;;;5094843;28;20183;-70
2023/12/18 10:05:26;;;;;;;7.85;7.10;;;18.50;56.30;;;;;;5093818;28;20189;-70
2023/12/18 10:07:54;;;;;;;6.63;5.97;;;18.50;56.30;;;;;;5114197;28;20197;-70
2023/12/18 10:10:21;;;;;;;6.95;6.35;;;18.50;56.20;;;;;;5113386;28;20184;-70
2023/12/18 10:12:47;;;;;;;8.18;7.43;;;18.50;56.30;;;;;;5113075;28;20240;-70
2023/12/18 10:15:14;;;;;;;7.22;6.63;;;18.50;56.30;;;;;;5098023;28;20542;-70
2023/12/18 10:17:44;;;;;;;7.30;6.70;;;18.50;56.30;;;;;;5096288;28;20189;-70
2023/12/18 10:20:12;;;;;;;7.40;6.75;;;18.50;56.30;;;;;;5106990;28;20187;-70
2023/12/18 10:22:42;;;;;;;7.70;6.90;;;18.50;56.40;;;;;;5120636;28;20189;-70
2023/12/18 10:25:10;;;;;;;7.63;6.90;;;18.50;56.30;;;;;;5079488;28;20204;-70
2023/12/18 10:27:38;;;;;;;7.80;7.10;;;18.50;56.30;;;;;;5087374;28;20185;-69
2023/12/18 10:30:08;;;;;;;6.97;6.38;;;18.50;56.30;;;;;;5096048;28;20552;-70
2023/12/18 10:32:39;;;;;;;7.70;7.00;;;18.60;56.40;;;;;;5094725;28;20235;-70
2023/12/18 10:35:06;;;;;;;7.82;7.03;;;18.60;56.40;;;;;;5090722;28;20190;-71
2023/12/18 10:37:33;;;;;;;7.80;6.95;;;18.50;56.30;;;;;;5093555;28;20185;-70
2023/12/18 10:40:03;;;;;;;8.50;7.70;;;18.50;56.30;;;;;;5075860;28;20177;-71
2023/12/18 10:42:37;;;;;;;7.55;6.80;;;18.60;56.40;;;;;;5082826;28;20225;-70
2023/12/18 10:45:07;;;;;;;7.60;6.90;;;18.60;56.50;;;;;;5095961;28;20184;-70
2023/12/18 10:47:34;;;;;;;7.38;6.78;;;18.60;56.40;;;;;;5099367;28;20188;-70
2023/12/18 10:50:03;;;;;;;7.88;7.18;;;18.60;56.40;;;;;;5075473;28;20185;-70
2023/12/18 10:52:30;;;;;;;7.97;7.28;;;18.60;56.60;;;;;;5086601;28;20680;-69
2023/12/18 10:55:02;;;;;;;8.32;7.53;;;18.60;56.50;;;;;;5072428;28;20178;-70
2023/12/18 10:57:28;;;;;;;8.20;7.50;;;18.60;56.60;;;;;;5094298;28;20173;-70
2023/12/18 10:59:57;;;;;;;8.25;7.45;;;18.60;56.60;;;;;;5073508;28;20193;-70
2023/12/18 11:02:24;;;;;;;8.20;7.50;;;18.60;56.70;;;;;;5091908;28;20202;-70
2023/12/18 11:04:53;;;;;;;7.90;7.18;;;18.60;56.70;;;;;;5087427;28;20185;-70
2023/12/18 11:07:19;;;;;;;8.07;7.38;;;18.60;56.70;;;;;;5084335;28;20190;-70
2023/12/18 11:09:47;;;;;;;7.80;7.13;;;18.60;57.00;;;;;;5085140;28;20203;-70
2023/12/18 11:12:17;;;;;;;7.45;6.85;;;18.60;56.70;;;;;;5089159;28;20209;-70
2023/12/18 11:15:11;;;;;;;7.88;7.22;;;18.60;56.80;;;;;;5093639;28;20188;-70
2023/12/18 11:18:25;;;;;;;9.30;7.10;;;18.60;56.80;;;;;;5091314;28;20192;-70
2023/12/18 11:20:53;;;;;;;7.63;6.93;;;18.60;56.80;;;;;;5074208;28;20217;-70
2023/12/18 11:23:19;;;;;;;7.68;6.97;;;18.70;56.90;;;;;;5075719;28;20310;-70
2023/12/18 11:25:49;;;;;;;7.28;6.68;;;18.60;56.90;;;;;;5075801;28;20202;-71
2023/12/18 11:28:15;;;;;;;7.47;6.78;;;18.70;57.00;;;;;;5088333;28;20242;-70
2023/12/18 11:30:43;;;;;;;7.30;6.63;;;18.60;56.90;;;;;;5096181;28;20684;-70
2023/12/18 11:33:11;;;;;;;7.63;6.90;;;18.60;57.00;;;;;;5076997;28;20213;-71
2023/12/18 11:35:43;;;;;;;7.32;6.72;;;18.70;57.00;;;;;;5093094;28;20186;-70
2023/12/18 11:38:13;;;;;;;7.10;6.50;;;18.60;57.00;;;;;;5100561;28;20188;-70
2023/12/18 11:40:48;;;;;;;6.97;6.35;;;18.70;57.10;;;;;;5074672;28;20211;-70
2023/12/18 11:43:41;;;;;;;7.32;6.63;;;18.70;57.10;;;;;;5071061;28;20176;-70
2023/12/18 11:46:13;;;;;;;6.82;6.22;;;18.70;57.10;;;;;;5091626;28;20181;-69
2023/12/18 11:48:41;;;;;;;7.18;6.47;;;18.70;57.10;;;;;;5089798;28;20221;-69
2023/12/18 11:51:07;;;;;;;7.40;6.80;;;18.70;57.20;;;;;;5076623;28;20201;-70
2023/12/18 11:53:35;;;;;;;6.78;6.18;;;18.70;57.20;;;;;;5089579;28;20197;-70
2023/12/18 11:56:09;;;;;;;6.53;5.93;;;18.70;57.20;;;;;;5103801;28;20249;-68
2023/12/18 11:58:38;;;;;;;5.85;5.35;;;18.70;57.20;;;;;;5098167;28;20249;-68
2023/12/18 12:01:05;;;;;;;6.80;6.20;;;18.70;57.20;;;;;;5087643;28;20260;-70
2023/12/18 12:03:33;;;;;;;6.25;5.75;;;18.70;57.20;;;;;;5082707;28;20315;-69
2023/12/18 12:06:00;;;;;;;6.35;5.82;;;18.70;57.20;;;;;;5099857;28;20185;-68
2023/12/18 12:08:26;;;;;;;6.32;5.82;;;18.70;57.30;;;;;;5076096;28;20200;-70
2023/12/18 12:10:54;;;;;;;6.70;6.10;;;18.70;57.30;;;;;;5102615;27;20252;-69
2023/12/18 12:13:27;;;;;;;6.47;5.88;;;18.70;57.30;;;;;;5077846;28;20205;-70
2023/12/18 12:15:58;;;;;;;6.65;6.05;;;18.70;57.20;;;;;;5093159;28;20263;-70
2023/12/18 12:18:44;;;;;;;5.88;5.38;;;18.80;57.40;;;;;;5104941;28;20185;-70
2023/12/18 12:21:14;;;;;;;5.68;5.18;;;18.80;57.40;;;;;;5074046;28;20204;-70
2023/12/18 12:23:40;;;;;;;5.65;5.15;;;18.70;57.40;;;;;;5096646;28;20692;-70
2023/12/18 12:26:11;;;;;;;5.53;5.13;;;18.70;57.40;;;;;;5090939;28;20578;-69
2023/12/18 12:28:37;;;;;;;5.50;5.00;;;18.80;57.50;;;;;;5080637;28;20272;-70
2023/12/18 12:31:06;;;;;;;5.57;5.07;;;18.80;57.60;;;;;;5092101;28;20334;-70
2023/12/18 12:33:47;;;;;;;5.60;5.10;;;18.70;57.50;;;;;;5091147;28;20228;-70
2023/12/18 12:36:18;;;;;;;5.72;5.22;;;18.80;57.60;;;;;;5093660;28;20180;-70
2023/12/18 12:38:44;;;;;;;5.38;4.88;;;18.80;57.60;;;;;;5093217;28;20205;-70
2023/12/18 12:41:11;;;;;;;5.25;4.85;;;18.80;57.60;;;;;;5090632;28;20231;-69
2023/12/18 12:43:36;;;;;;;5.32;4.88;;;18.80;57.60;;;;;;5091841;28;20637;-70